createdAt,value
2023-02-15T00:01:18.210Z,21.03
2023-02-15T00:03:45.834Z,21.03
2023-02-15T00:06:13.458Z,21.02
2023-02-15T00:08:41.152Z,21.02
2023-02-15T00:11:09.115Z,21.02
2023-02-15T00:13:37.189Z,21.02
2023-02-15T00:16:04.992Z,21.02
2023-02-15T00:18:34.071Z,21.02
2023-02-15T00:21:04.897Z,21.01
2023-02-15T00:23:32.560Z,21.01
2023-02-15T00:26:07.205Z,21.01
2023-02-15T00:28:34.950Z,21.01
2023-02-15T00:31:06.610Z,21.01
2023-02-15T00:33:35.709Z,21.01
2023-02-15T00:36:03.532Z,21.02
2023-02-15T00:38:31.326Z,21.02
2023-02-15T00:41:00.299Z,21.02
2023-02-15T00:43:28.033Z,21.03
2023-02-15T00:45:55.739Z,21.03
2023-02-15T00:48:23.438Z,21.03
2023-02-15T00:50:52.869Z,21.02
2023-02-15T00:53:20.592Z,21.02
2023-02-15T00:55:48.224Z,21.01
2023-02-15T00:58:16.225Z,21.00
2023-02-15T01:00:44.700Z,21.01
2023-02-15T01:03:12.387Z,21.00
2023-02-15T01:05:40.079Z,21.00
2023-02-15T01:08:09.070Z,20.98
2023-02-15T01:10:36.820Z,21.00
2023-02-15T01:13:04.583Z,20.99
2023-02-15T01:15:32.299Z,20.99
2023-02-15T01:17:59.981Z,20.98
2023-02-15T01:20:28.153Z,20.98
2023-02-15T01:22:55.817Z,20.98
2023-02-15T01:25:25.069Z,20.97
2023-02-15T01:27:52.709Z,20.96
2023-02-15T01:30:20.393Z,20.96
2023-02-15T01:32:48.025Z,20.97
2023-02-15T01:35:15.750Z,20.96
2023-02-15T01:37:43.433Z,20.96
2023-02-15T01:40:13.732Z,20.98
2023-02-15T01:42:42.857Z,20.98
2023-02-15T01:45:16.941Z,20.98
2023-02-15T01:47:45.037Z,20.99
2023-02-15T01:50:14.350Z,20.99
2023-02-15T01:52:42.639Z,21.00
2023-02-15T01:55:10.291Z,20.99
2023-02-15T01:57:37.931Z,21.00
2023-02-15T02:00:07.893Z,20.98
2023-02-15T02:02:35.639Z,20.98
2023-02-15T02:05:07.356Z,20.98
2023-02-15T02:07:35.633Z,20.97
2023-02-15T02:10:03.384Z,20.97
2023-02-15T02:12:31.028Z,20.97
2023-02-15T02:14:58.617Z,20.97
2023-02-15T02:17:29.402Z,20.97
2023-02-15T02:20:11.262Z,20.95
2023-02-15T02:22:59.855Z,20.95
2023-02-15T02:25:42.345Z,20.96
2023-02-15T02:28:12.964Z,20.95
2023-02-15T02:30:58.525Z,20.95
2023-02-15T02:33:35.912Z,20.95
2023-02-15T02:36:07.080Z,20.95
2023-02-15T02:38:36.084Z,20.94
2023-02-15T02:41:07.025Z,20.95
2023-02-15T02:43:35.920Z,20.94
2023-02-15T02:46:05.111Z,20.94
2023-02-15T02:48:33.047Z,20.93
2023-02-15T02:51:02.200Z,20.94
2023-02-15T02:53:48.353Z,20.94
2023-02-15T02:56:17.963Z,20.96
2023-02-15T02:58:47.001Z,20.96
2023-02-15T03:01:15.864Z,20.96
2023-02-15T03:03:44.071Z,20.95
2023-02-15T03:06:13.388Z,20.94
2023-02-15T03:08:42.588Z,20.95
2023-02-15T03:11:10.964Z,20.94
2023-02-15T03:13:38.705Z,20.93
2023-02-15T03:16:23.975Z,20.93
2023-02-15T03:18:58.909Z,20.93
2023-02-15T03:21:30.026Z,20.93
2023-02-15T03:23:59.295Z,20.93
2023-02-15T03:26:26.961Z,20.93
2023-02-15T03:28:55.033Z,20.92
2023-02-15T03:31:22.904Z,20.92
2023-02-15T03:33:52.258Z,20.91
2023-02-15T03:36:20.870Z,20.92
2023-02-15T03:38:51.513Z,20.92
2023-02-15T03:41:19.307Z,20.91
2023-02-15T03:43:47.886Z,20.91
2023-02-15T03:46:18.557Z,20.91
2023-02-15T03:48:47.873Z,20.91
2023-02-15T03:51:34.283Z,20.91
2023-02-15T03:54:03.363Z,20.91
2023-02-15T03:56:31.140Z,20.91
2023-02-15T03:59:15.859Z,20.91
2023-02-15T04:01:59.284Z,20.92
2023-02-15T04:04:27.880Z,20.92
2023-02-15T04:06:55.505Z,20.92
2023-02-15T04:09:42.070Z,20.93
2023-02-15T04:12:09.844Z,20.93
2023-02-15T04:14:54.625Z,20.93
2023-02-15T04:17:22.308Z,20.93
2023-02-15T04:20:07.269Z,20.93
2023-02-15T04:22:52.335Z,20.91
2023-02-15T04:25:21.350Z,20.91
2023-02-15T04:27:50.152Z,20.91
2023-02-15T04:30:18.164Z,20.91
2023-02-15T04:32:45.834Z,20.91
2023-02-15T04:35:13.462Z,20.89
2023-02-15T04:37:41.098Z,20.90
2023-02-15T04:40:09.094Z,20.89
2023-02-15T04:42:38.172Z,20.89
2023-02-15T04:45:06.094Z,20.90
2023-02-15T04:47:33.767Z,20.89
2023-02-15T04:50:01.666Z,20.88
2023-02-15T04:52:29.405Z,20.89
2023-02-15T04:54:57.019Z,20.89
2023-02-15T04:57:24.653Z,20.89
2023-02-15T04:59:53.652Z,20.89
2023-02-15T05:02:21.492Z,20.89
2023-02-15T05:04:49.248Z,20.88
2023-02-15T05:07:16.863Z,20.89
2023-02-15T05:09:44.524Z,20.89
2023-02-15T05:12:12.244Z,20.90
2023-02-15T05:14:40.014Z,20.91
2023-02-15T05:17:09.057Z,20.90
2023-02-15T05:19:36.709Z,20.91
2023-02-15T05:22:04.328Z,20.90
2023-02-15T05:24:49.455Z,20.91
2023-02-15T05:27:34.259Z,20.91
2023-02-15T05:30:02.074Z,20.90
2023-02-15T05:32:31.253Z,20.89
2023-02-15T05:34:59.061Z,20.88
2023-02-15T05:37:26.745Z,20.89
2023-02-15T05:39:54.413Z,20.89
2023-02-15T05:42:22.126Z,20.86
2023-02-15T05:44:49.791Z,20.87
2023-02-15T05:47:17.519Z,20.86
2023-02-15T05:49:46.517Z,20.86
2023-02-15T05:52:14.221Z,20.85
2023-02-15T05:54:41.929Z,20.88
2023-02-15T05:57:09.560Z,20.86
2023-02-15T05:59:37.262Z,20.85
2023-02-15T06:02:05.008Z,20.88
2023-02-15T06:04:32.738Z,20.89
2023-02-15T06:07:01.845Z,20.89
2023-02-15T06:09:29.553Z,20.91
2023-02-15T06:11:57.217Z,20.93
2023-02-15T06:14:24.821Z,20.94
2023-02-15T06:16:52.487Z,20.94
2023-02-15T06:19:20.091Z,20.96
2023-02-15T06:21:47.704Z,20.98
2023-02-15T06:24:16.696Z,21.00
2023-02-15T06:26:44.328Z,21.00
2023-02-15T06:29:12.003Z,21.01
2023-02-15T06:31:39.685Z,21.02
2023-02-15T06:34:07.401Z,21.03
2023-02-15T06:36:35.104Z,21.04
2023-02-15T06:39:03.255Z,21.05
2023-02-15T06:41:32.367Z,21.05
2023-02-15T06:44:00.482Z,21.07
2023-02-15T06:46:28.157Z,21.06
2023-02-15T06:48:55.901Z,21.07
2023-02-15T06:51:23.529Z,21.08
2023-02-15T06:53:51.181Z,21.09
2023-02-15T06:56:18.914Z,21.10
2023-02-15T06:58:50.252Z,21.11
2023-02-15T07:01:18.024Z,21.11
2023-02-15T07:03:45.658Z,21.12
2023-02-15T07:06:13.301Z,21.14
2023-02-15T07:08:41.086Z,21.14
2023-02-15T07:11:26.178Z,21.15
2023-02-15T07:13:55.343Z,21.17
2023-02-15T07:16:23.087Z,21.17
2023-02-15T07:18:50.845Z,21.16
2023-02-15T07:21:18.634Z,21.20
2023-02-15T07:23:46.344Z,21.22
2023-02-15T07:26:14.186Z,21.25
2023-02-15T07:28:41.824Z,21.27
2023-02-15T07:31:11.186Z,21.29
2023-02-15T07:33:38.862Z,21.33
2023-02-15T07:36:07.332Z,21.34
2023-02-15T07:38:35.328Z,21.35
2023-02-15T07:41:03.498Z,21.36
2023-02-15T07:43:31.336Z,21.37
2023-02-15T07:46:01.132Z,21.38
2023-02-15T07:48:31.025Z,21.40
2023-02-15T07:51:00.474Z,21.40
2023-02-15T07:53:28.594Z,21.43
2023-02-15T07:55:56.995Z,21.43
2023-02-15T07:58:47.350Z,21.44
2023-02-15T08:01:14.998Z,21.46
2023-02-15T08:03:44.687Z,21.48
2023-02-15T08:06:14.219Z,21.49
2023-02-15T08:08:42.564Z,21.50
2023-02-15T08:11:30.093Z,21.51
2023-02-15T08:14:02.033Z,21.53
2023-02-15T08:16:30.672Z,21.54
2023-02-15T08:19:01.103Z,21.56
2023-02-15T08:21:29.199Z,21.60
2023-02-15T08:23:57.603Z,21.62
2023-02-15T08:26:25.318Z,21.62
2023-02-15T08:28:53.828Z,21.65
2023-02-15T08:31:21.671Z,21.67
2023-02-15T08:33:50.363Z,21.67
2023-02-15T08:36:19.837Z,21.69
2023-02-15T08:38:47.622Z,21.72
2023-02-15T08:41:18.224Z,21.74
2023-02-15T08:43:45.913Z,21.77
2023-02-15T08:46:14.351Z,21.78
2023-02-15T08:48:45.628Z,21.78
2023-02-15T08:51:14.394Z,21.81
2023-02-15T08:53:43.760Z,21.84
2023-02-15T08:56:12.395Z,21.86
2023-02-15T08:58:40.136Z,21.88
2023-02-15T09:01:12.189Z,21.90
2023-02-15T09:03:39.952Z,21.90
2023-02-15T09:06:08.467Z,21.91
2023-02-15T09:08:36.265Z,21.92
2023-02-15T09:11:09.576Z,21.92
2023-02-15T09:13:37.212Z,21.93
2023-02-15T09:16:05.900Z,21.94
2023-02-15T09:18:36.355Z,21.98
2023-02-15T09:21:08.688Z,22.00
2023-02-15T09:23:36.417Z,22.00
2023-02-15T09:26:04.863Z,22.00
2023-02-15T09:28:35.486Z,21.99
2023-02-15T09:31:09.616Z,21.98
2023-02-15T09:33:38.107Z,21.97
2023-02-15T09:36:06.004Z,21.96
2023-02-15T09:38:34.512Z,21.95
2023-02-15T09:41:06.497Z,21.97
2023-02-15T09:43:37.846Z,22.00
2023-02-15T09:46:20.361Z,21.99
2023-02-15T09:48:49.594Z,21.99
2023-02-15T09:51:27.011Z,21.99
2023-02-15T09:53:59.231Z,21.98
2023-02-15T09:56:28.954Z,21.99
2023-02-15T09:59:00.923Z,22.02
2023-02-15T10:01:31.492Z,22.04
2023-02-15T10:04:07.353Z,22.05
2023-02-15T10:06:43.166Z,22.06
2023-02-15T10:09:32.772Z,22.09
2023-02-15T10:12:10.008Z,22.10
2023-02-15T10:14:46.349Z,22.12
2023-02-15T10:17:18.307Z,22.13
2023-02-15T10:19:48.330Z,22.16
2023-02-15T10:22:19.440Z,22.17
2023-02-15T10:24:51.360Z,22.20
2023-02-15T10:27:20.939Z,22.21
2023-02-15T10:29:52.200Z,22.24
2023-02-15T10:32:24.400Z,22.26
2023-02-15T10:34:53.898Z,22.26
2023-02-15T10:37:34.453Z,22.27
2023-02-15T10:40:04.705Z,22.29
2023-02-15T10:42:33.143Z,22.31
2023-02-15T10:45:14.341Z,22.33
2023-02-15T10:47:45.462Z,22.33
2023-02-15T10:50:35.670Z,22.34
2023-02-15T10:53:08.534Z,22.36
2023-02-15T10:55:40.856Z,22.34
2023-02-15T10:58:11.486Z,22.36
2023-02-15T11:00:42.946Z,22.40
2023-02-15T11:03:17.773Z,22.42
2023-02-15T11:05:50.884Z,22.44
2023-02-15T11:08:18.584Z,22.45
2023-02-15T11:10:47.261Z,22.46
2023-02-15T11:13:16.545Z,22.48
2023-02-15T11:15:46.527Z,22.49
2023-02-15T11:18:19.309Z,22.51
2023-02-15T11:20:47.772Z,22.53
2023-02-15T11:23:17.243Z,22.54
2023-02-15T11:25:47.376Z,22.56
2023-02-15T11:28:17.417Z,22.56
2023-02-15T11:30:48.602Z,22.59
2023-02-15T11:33:19.363Z,22.59
2023-02-15T11:35:50.294Z,22.61
2023-02-15T11:38:18.874Z,22.63
2023-02-15T11:40:48.837Z,22.63
2023-02-15T11:43:19.057Z,22.65
2023-02-15T11:45:48.257Z,22.67
2023-02-15T11:48:16.813Z,22.68
2023-02-15T11:50:45.693Z,22.68
2023-02-15T11:53:15.354Z,22.69
2023-02-15T11:55:43.532Z,22.69
2023-02-15T11:58:12.897Z,22.70
2023-02-15T12:00:41.555Z,22.72
2023-02-15T12:03:17.221Z,22.72
2023-02-15T12:05:45.361Z,22.74
2023-02-15T12:08:16.115Z,22.74
2023-02-15T12:10:45.063Z,22.74
2023-02-15T12:13:17.397Z,22.77
2023-02-15T12:15:47.573Z,22.77
2023-02-15T12:18:21.800Z,22.77
2023-02-15T12:20:49.476Z,22.77
2023-02-15T12:23:17.451Z,22.78
2023-02-15T12:25:46.832Z,22.79
2023-02-15T12:28:23.741Z,22.78
2023-02-15T12:30:52.368Z,22.80
2023-02-15T12:33:23.650Z,22.82
2023-02-15T12:35:54.335Z,22.82
2023-02-15T12:38:23.706Z,22.83
2023-02-15T12:40:59.080Z,22.83
2023-02-15T12:43:27.357Z,22.86
2023-02-15T12:45:55.810Z,22.85
2023-02-15T12:48:27.219Z,22.85
2023-02-15T12:50:57.247Z,22.86
2023-02-15T12:53:31.649Z,22.87
2023-02-15T12:56:01.065Z,22.87
2023-02-15T12:58:28.813Z,22.88
2023-02-15T13:01:07.781Z,22.88
2023-02-15T13:03:36.829Z,22.88
2023-02-15T13:06:09.484Z,22.89
2023-02-15T13:08:38.012Z,22.90
2023-02-15T13:11:06.783Z,22.90
2023-02-15T13:13:35.452Z,22.92
2023-02-15T13:16:04.696Z,22.92
2023-02-15T13:18:33.442Z,22.91
2023-02-15T13:21:10.765Z,22.91
2023-02-15T13:23:38.415Z,22.93
2023-02-15T13:26:06.508Z,22.93
2023-02-15T13:28:38.930Z,22.93
2023-02-15T13:31:06.750Z,22.93
2023-02-15T13:33:34.730Z,22.94
2023-02-15T13:36:08.976Z,22.96
2023-02-15T13:38:54.626Z,22.98
2023-02-15T13:41:22.707Z,23.00
2023-02-15T13:43:52.813Z,23.02
2023-02-15T13:46:23.219Z,23.03
2023-02-15T13:48:54.300Z,23.03
2023-02-15T13:51:26.436Z,23.06
2023-02-15T13:54:07.068Z,23.06
2023-02-15T13:56:37.723Z,23.08
2023-02-15T13:59:11.084Z,23.08
2023-02-15T14:01:40.433Z,23.09
2023-02-15T14:04:23.009Z,23.08
2023-02-15T14:07:18.128Z,23.08
2023-02-15T14:09:49.080Z,23.08
2023-02-15T14:12:22.617Z,23.09
2023-02-15T14:14:54.611Z,23.09
2023-02-15T14:17:24.326Z,23.09
2023-02-15T14:19:53.427Z,23.09
2023-02-15T14:22:23.500Z,23.08
2023-02-15T14:24:55.504Z,23.10
2023-02-15T14:27:24.660Z,23.10
2023-02-15T14:29:53.669Z,23.10
2023-02-15T14:32:23.312Z,23.08
2023-02-15T14:34:51.744Z,23.08
2023-02-15T14:37:21.652Z,23.04
2023-02-15T14:40:07.756Z,23.06
2023-02-15T14:42:39.287Z,23.07
2023-02-15T14:45:07.792Z,23.06
2023-02-15T14:47:36.732Z,23.07
2023-02-15T14:50:19.759Z,23.06
2023-02-15T14:53:02.859Z,23.04
2023-02-15T14:55:36.856Z,23.03
2023-02-15T14:58:12.192Z,23.01
2023-02-15T15:00:40.303Z,23.00
2023-02-15T15:03:20.144Z,22.99
2023-02-15T15:05:51.459Z,22.98
2023-02-15T15:08:23.986Z,22.97
2023-02-15T15:10:51.648Z,22.96
2023-02-15T15:13:39.288Z,22.95
2023-02-15T15:16:25.524Z,22.94
2023-02-15T15:18:54.793Z,22.91
2023-02-15T15:21:53.235Z,22.90
2023-02-15T15:24:36.277Z,22.88
2023-02-15T15:27:25.772Z,22.87
2023-02-15T15:29:53.474Z,22.85
2023-02-15T15:32:21.575Z,22.82
2023-02-15T15:35:02.755Z,22.81
2023-02-15T15:37:44.500Z,22.78
2023-02-15T15:40:27.470Z,22.77
2023-02-15T15:43:10.136Z,22.75
2023-02-15T15:45:53.126Z,22.75
2023-02-15T15:48:36.301Z,22.73
2023-02-15T15:51:06.454Z,22.72
2023-02-15T15:53:35.386Z,22.70
2023-02-15T15:56:04.483Z,22.69
2023-02-15T15:58:32.691Z,22.68
2023-02-15T16:01:02.099Z,22.66
2023-02-15T16:03:30.133Z,22.65
2023-02-15T16:06:02.285Z,22.64
2023-02-15T16:08:33.306Z,22.63
2023-02-15T16:11:01.576Z,22.60
2023-02-15T16:13:29.328Z,22.59
2023-02-15T16:15:57.352Z,22.57
2023-02-15T16:18:26.268Z,22.56
2023-02-15T16:20:54.924Z,22.54
2023-02-15T16:23:34.653Z,22.53
2023-02-15T16:26:04.362Z,22.53
2023-02-15T16:28:32.286Z,22.51
2023-02-15T16:31:07.307Z,22.49
2023-02-15T16:33:38.713Z,22.47
2023-02-15T16:36:09.524Z,22.47
2023-02-15T16:38:55.152Z,22.45
2023-02-15T16:41:23.893Z,22.44
2023-02-15T16:43:51.799Z,22.43
2023-02-15T16:46:29.595Z,22.43
2023-02-15T16:48:59.927Z,22.43
2023-02-15T16:51:28.689Z,22.42
2023-02-15T16:53:58.752Z,22.41
2023-02-15T16:56:26.485Z,22.40
2023-02-15T16:58:55.060Z,22.40
2023-02-15T17:01:24.164Z,22.39
2023-02-15T17:03:52.924Z,22.38
2023-02-15T17:06:21.553Z,22.38
2023-02-15T17:08:49.900Z,22.37
2023-02-15T17:11:19.466Z,22.36
2023-02-15T17:14:06.543Z,22.35
2023-02-15T17:16:34.624Z,22.33
2023-02-15T17:19:03.118Z,22.32
2023-02-15T17:21:32.852Z,22.32
2023-02-15T17:24:01.926Z,22.31
2023-02-15T17:26:31.273Z,22.29
2023-02-15T17:29:01.080Z,22.29
2023-02-15T17:31:29.874Z,22.27
2023-02-15T17:34:00.677Z,22.27
2023-02-15T17:36:30.358Z,22.27
2023-02-15T17:39:02.864Z,22.27
2023-02-15T17:41:32.307Z,22.25
2023-02-15T17:44:01.505Z,22.25
2023-02-15T17:46:29.279Z,22.24
2023-02-15T17:48:58.428Z,22.23
2023-02-15T17:51:26.825Z,22.22
2023-02-15T17:54:12.502Z,22.21
2023-02-15T17:56:41.598Z,22.21
2023-02-15T17:59:11.969Z,22.20
2023-02-15T18:01:57.546Z,22.20
2023-02-15T18:04:43.154Z,22.20
2023-02-15T18:07:27.883Z,22.20
2023-02-15T18:10:13.425Z,22.20
2023-02-15T18:12:42.614Z,22.20
2023-02-15T18:15:12.933Z,22.19
2023-02-15T18:17:41.283Z,22.20
2023-02-15T18:20:12.550Z,22.19
2023-02-15T18:22:40.288Z,22.17
2023-02-15T18:25:11.049Z,22.19
2023-02-15T18:27:38.849Z,22.19
2023-02-15T18:30:09.568Z,22.17
2023-02-15T18:32:37.566Z,22.16
2023-02-15T18:35:06.429Z,22.16
2023-02-15T18:37:34.142Z,22.14
2023-02-15T18:40:03.705Z,22.13
2023-02-15T18:42:33.177Z,22.14
2023-02-15T18:45:01.360Z,22.14
2023-02-15T18:47:31.259Z,22.13
2023-02-15T18:49:59.617Z,22.13
2023-02-15T18:52:27.591Z,22.11
2023-02-15T18:54:57.056Z,22.11
2023-02-15T18:57:24.696Z,22.12
2023-02-15T18:59:53.550Z,22.10
2023-02-15T19:02:21.247Z,22.10
2023-02-15T19:04:51.009Z,22.11
2023-02-15T19:07:19.544Z,22.10
2023-02-15T19:09:48.182Z,22.10
2023-02-15T19:12:16.550Z,22.11
2023-02-15T19:14:44.278Z,22.12
2023-02-15T19:17:14.892Z,22.13
2023-02-15T19:19:43.309Z,22.12
2023-02-15T19:22:14.390Z,22.11
2023-02-15T19:24:44.634Z,22.12
2023-02-15T19:27:14.325Z,22.12
2023-02-15T19:29:42.725Z,22.12
2023-02-15T19:32:11.033Z,22.13
2023-02-15T19:34:38.891Z,22.13
2023-02-15T19:37:08.722Z,22.12
2023-02-15T19:39:38.901Z,22.13
2023-02-15T19:42:07.299Z,22.13
2023-02-15T19:44:35.050Z,22.13
2023-02-15T19:47:03.440Z,22.13
2023-02-15T19:49:32.427Z,22.12
2023-02-15T19:52:00.141Z,22.13
2023-02-15T19:54:31.682Z,22.13
2023-02-15T19:57:00.943Z,22.12
2023-02-15T19:59:29.579Z,22.12
2023-02-15T20:01:57.365Z,22.13
2023-02-15T20:04:26.818Z,22.13
2023-02-15T20:06:55.472Z,22.11
2023-02-15T20:09:24.869Z,22.11
2023-02-15T20:11:52.762Z,22.11
2023-02-15T20:14:22.556Z,22.11
2023-02-15T20:16:50.292Z,22.11
2023-02-15T20:19:18.684Z,22.12
2023-02-15T20:21:46.800Z,22.12
2023-02-15T20:24:16.726Z,22.12
2023-02-15T20:26:44.522Z,22.11
2023-02-15T20:29:14.156Z,22.12
2023-02-15T20:31:43.470Z,22.11
2023-02-15T20:34:11.981Z,22.11
2023-02-15T20:36:39.727Z,22.11
2023-02-15T20:39:13.190Z,22.11
2023-02-15T20:41:46.956Z,22.11
2023-02-15T20:44:22.923Z,22.12
2023-02-15T20:46:52.455Z,22.12
2023-02-15T20:49:21.776Z,22.11
2023-02-15T20:51:50.310Z,22.11
2023-02-15T20:54:19.205Z,22.11
2023-02-15T20:56:46.952Z,22.11
2023-02-15T20:59:22.717Z,22.12
2023-02-15T21:01:50.480Z,22.12
2023-02-15T21:04:20.202Z,22.11
2023-02-15T21:06:48.567Z,22.09
2023-02-15T21:09:16.536Z,22.11
2023-02-15T21:11:45.552Z,22.09
2023-02-15T21:14:22.345Z,22.08
2023-02-15T21:16:50.953Z,22.09
2023-02-15T21:19:20.492Z,22.08
2023-02-15T21:21:49.344Z,22.08
2023-02-15T21:24:17.383Z,22.09
2023-02-15T21:26:46.196Z,22.09
2023-02-15T21:29:17.385Z,22.08
2023-02-15T21:31:47.892Z,22.09
2023-02-15T21:34:15.675Z,22.09
2023-02-15T21:36:46.693Z,22.08
2023-02-15T21:39:15.925Z,22.08
2023-02-15T21:42:01.569Z,22.08
2023-02-15T21:44:46.478Z,22.06
2023-02-15T21:47:36.525Z,22.07
2023-02-15T21:50:24.917Z,22.06
2023-02-15T21:52:53.830Z,22.07
2023-02-15T21:55:21.506Z,22.08
2023-02-15T21:57:49.928Z,22.08
2023-02-15T22:00:18.316Z,22.08
2023-02-15T22:02:46.615Z,22.06
2023-02-15T22:05:14.819Z,22.06
2023-02-15T22:07:43.156Z,22.05
2023-02-15T22:10:12.277Z,22.04
2023-02-15T22:12:40.754Z,22.04
2023-02-15T22:15:08.750Z,22.02
2023-02-15T22:17:37.137Z,22.00
2023-02-15T22:20:07.026Z,22.00
2023-02-15T22:22:35.421Z,22.00
2023-02-15T22:25:03.132Z,21.99
2023-02-15T22:27:32.914Z,21.97
2023-02-15T22:30:00.664Z,21.97
2023-02-15T22:32:29.225Z,21.97
2023-02-15T22:34:56.983Z,21.95
2023-02-15T22:37:24.725Z,21.95
2023-02-15T22:39:52.910Z,21.95
2023-02-15T22:42:24.602Z,21.93
2023-02-15T22:44:54.306Z,21.93
2023-02-15T22:47:22.732Z,21.93
2023-02-15T22:49:51.273Z,21.93
2023-02-15T22:52:19.006Z,21.93
2023-02-15T22:54:47.445Z,21.93
2023-02-15T22:57:16.275Z,21.92
2023-02-15T22:59:44.292Z,21.92
2023-02-15T23:02:13.506Z,21.91
2023-02-15T23:04:41.595Z,21.91
2023-02-15T23:07:11.718Z,21.92
2023-02-15T23:09:39.783Z,21.90
2023-02-15T23:12:08.148Z,21.89
2023-02-15T23:14:36.143Z,21.90
2023-02-15T23:17:03.890Z,21.89
2023-02-15T23:19:33.021Z,21.88
2023-02-15T23:22:00.768Z,21.86
2023-02-15T23:24:28.882Z,21.86
2023-02-15T23:27:16.700Z,21.86
2023-02-15T23:29:44.379Z,21.85
2023-02-15T23:32:12.714Z,21.84
2023-02-15T23:34:41.890Z,21.83
2023-02-15T23:37:11.449Z,21.83
2023-02-15T23:39:56.601Z,21.83
2023-02-15T23:42:25.005Z,21.82
2023-02-15T23:44:52.728Z,21.82
2023-02-15T23:47:21.114Z,21.81
2023-02-15T23:49:50.342Z,21.81
2023-02-15T23:52:17.984Z,21.79
2023-02-15T23:54:45.954Z,21.79
2023-02-15T23:57:13.670Z,21.79
2023-02-15T23:59:41.326Z,21.79
